createdAt,value
2023-01-26T00:00:06.798Z,100994.91
2023-01-26T00:02:55.312Z,100997.23
2023-01-26T00:05:23.735Z,100992.83
2023-01-26T00:07:52.109Z,100982.10
2023-01-26T00:10:21.308Z,100988.89
2023-01-26T00:13:01.224Z,100993.86
2023-01-26T00:15:36.533Z,100991.94
2023-01-26T00:18:04.790Z,100988.84
2023-01-26T00:20:32.930Z,100988.86
2023-01-26T00:23:01.418Z,100990.44
2023-01-26T00:25:29.627Z,100981.51
2023-01-26T00:27:58.372Z,100978.75
2023-01-26T00:30:27.673Z,100979.52
2023-01-26T00:32:57.857Z,100978.27
2023-01-26T00:35:26.168Z,100979.96
2023-01-26T00:37:55.064Z,100977.91
2023-01-26T00:40:23.259Z,100975.54
2023-01-26T00:42:54.571Z,100974.45
2023-01-26T00:45:23.073Z,100971.02
2023-01-26T00:47:51.235Z,100972.63
2023-01-26T00:50:21.836Z,100972.65
2023-01-26T00:52:50.694Z,100962.38
2023-01-26T00:55:18.835Z,100969.98
2023-01-26T00:57:47.016Z,100969.39
2023-01-26T01:00:17.010Z,100965.14
2023-01-26T01:02:45.512Z,100961.25
2023-01-26T01:05:13.601Z,100960.68
2023-01-26T01:07:41.858Z,100964.25
2023-01-26T01:10:10.896Z,100966.27
2023-01-26T01:12:39.329Z,100968.71
2023-01-26T01:15:09.220Z,100970.56
2023-01-26T01:17:37.422Z,100960.59
2023-01-26T01:20:09.689Z,100969.39
2023-01-26T01:22:38.882Z,100965.58
2023-01-26T01:25:07.260Z,100967.67
2023-01-26T01:27:35.460Z,100965.52
2023-01-26T01:30:08.022Z,100965.90
2023-01-26T01:32:36.841Z,100965.92
2023-01-26T01:35:05.676Z,100960.66
2023-01-26T01:37:33.871Z,100964.72
2023-01-26T01:40:02.152Z,100964.09
2023-01-26T01:42:30.602Z,100960.25
2023-01-26T01:45:41.220Z,100952.00
2023-01-26T01:48:24.790Z,100947.08
2023-01-26T01:50:58.194Z,100945.86
2023-01-26T01:53:34.803Z,100945.45
2023-01-26T01:56:08.919Z,100943.71
2023-01-26T01:58:40.884Z,100939.31
2023-01-26T02:01:10.825Z,100937.27
2023-01-26T02:03:41.469Z,100935.48
2023-01-26T02:06:12.670Z,100931.85
2023-01-26T02:08:55.390Z,100926.52
2023-01-26T02:11:38.726Z,100925.67
2023-01-26T02:14:10.383Z,100923.23
2023-01-26T02:16:40.382Z,100919.20
2023-01-26T02:19:20.433Z,100915.05
2023-01-26T02:21:51.065Z,100909.94
2023-01-26T02:24:29.591Z,100904.29
2023-01-26T02:26:58.072Z,100898.46
2023-01-26T02:29:26.344Z,100897.14
2023-01-26T02:31:55.504Z,100893.30
2023-01-26T02:34:28.947Z,100895.27
2023-01-26T02:37:01.420Z,100895.67
2023-01-26T02:40:02.572Z,100897.33
2023-01-26T02:42:44.653Z,100892.73
2023-01-26T02:45:15.702Z,100886.67
2023-01-26T02:47:45.048Z,100880.45
2023-01-26T02:50:14.816Z,100877.62
2023-01-26T02:52:44.225Z,100868.36
2023-01-26T02:55:28.510Z,100866.49
2023-01-26T02:58:01.582Z,100861.49
2023-01-26T03:00:42.150Z,100859.52
2023-01-26T03:03:19.129Z,100857.70
2023-01-26T03:05:47.578Z,100859.39
2023-01-26T03:08:16.132Z,100856.25
2023-01-26T03:10:47.717Z,100859.66
2023-01-26T03:13:16.190Z,100853.48
2023-01-26T03:15:52.883Z,100852.14
2023-01-26T03:18:42.883Z,100848.84
2023-01-26T03:21:35.712Z,100845.79
2023-01-26T03:27:28.680Z,100834.58
2023-01-26T03:30:02.103Z,100832.80
2023-01-26T03:32:31.083Z,100828.21
2023-01-26T03:35:00.173Z,100823.21
2023-01-26T03:37:34.695Z,100822.67
2023-01-26T03:40:24.880Z,100822.54
2023-01-26T03:43:12.106Z,100817.10
2023-01-26T03:45:59.030Z,100812.11
2023-01-26T03:48:46.645Z,100798.84
2023-01-26T03:51:34.985Z,100804.52
2023-01-26T03:54:22.015Z,100808.84
2023-01-26T03:56:50.394Z,100800.81
2023-01-26T03:59:25.532Z,100797.56
2023-01-26T04:02:13.184Z,100793.26
2023-01-26T04:05:00.164Z,100794.34
2023-01-26T04:07:47.898Z,100795.52
2023-01-26T04:10:16.290Z,100793.08
2023-01-26T04:12:44.871Z,100786.09
2023-01-26T04:15:55.660Z,100785.34
2023-01-26T04:18:42.571Z,100788.30
2023-01-26T04:21:29.372Z,100791.10
2023-01-26T04:24:00.131Z,100796.63
2023-01-26T04:26:40.869Z,100796.83
2023-01-26T04:29:15.065Z,100792.46
2023-01-26T04:31:44.619Z,100793.98
2023-01-26T04:34:15.951Z,100795.33
2023-01-26T04:36:44.281Z,100795.20
2023-01-26T04:39:12.493Z,100792.50
2023-01-26T04:41:45.375Z,100792.36
2023-01-26T04:44:17.141Z,100791.44
2023-01-26T04:46:47.459Z,100788.38
2023-01-26T04:49:15.622Z,100788.62
2023-01-26T04:51:44.295Z,100781.98
2023-01-26T04:54:13.002Z,100781.31
2023-01-26T04:56:45.141Z,100780.91
2023-01-26T04:59:13.650Z,100779.55
2023-01-26T05:01:43.271Z,100777.77
2023-01-26T05:04:13.239Z,100777.67
2023-01-26T05:06:44.618Z,100777.73
2023-01-26T05:09:13.206Z,100778.80
2023-01-26T05:11:44.429Z,100771.08
2023-01-26T05:14:38.729Z,100773.58
2023-01-26T05:17:19.725Z,100774.23
2023-01-26T05:19:48.204Z,100773.59
2023-01-26T05:22:19.339Z,100776.23
2023-01-26T05:25:08.510Z,100773.42
2023-01-26T05:27:55.890Z,100767.56
2023-01-26T05:30:24.506Z,100766.37
2023-01-26T05:32:53.432Z,100763.07
2023-01-26T05:35:23.818Z,100764.27
2023-01-26T05:37:52.451Z,100761.21
2023-01-26T05:40:22.136Z,100760.91
2023-01-26T05:42:50.769Z,100765.55
2023-01-26T05:45:26.444Z,100765.48
2023-01-26T05:47:57.630Z,100766.94
2023-01-26T05:50:26.196Z,100763.98
2023-01-26T05:53:18.436Z,100763.34
2023-01-26T05:55:47.135Z,100760.52
2023-01-26T05:58:15.296Z,100759.09
2023-01-26T06:00:43.571Z,100756.77
2023-01-26T06:03:16.771Z,100754.61
2023-01-26T06:05:53.035Z,100754.10
2023-01-26T06:08:29.082Z,100752.57
2023-01-26T06:11:17.328Z,100747.31
